sensor_id;sensor_type;location;lat;lon;timestamp;pressure;altitude;pressure_sealevel;temperature;humidity
53758;BME280;39674;59.860;30.672;2023-05-02T00:01:04;101086.09;;;5.75;66.38
53758;BME280;39674;59.860;30.672;2023-05-02T00:03:48;101024.31;;;5.32;66.91
53758;BME280;39674;59.860;30.672;2023-05-02T00:06:19;101012.56;;;5.12;68.07
53758;BME280;39674;59.860;30.672;2023-05-02T00:08:57;101037.44;;;5.30;67.92
53758;BME280;39674;59.860;30.672;2023-05-02T00:11:47;101039.19;;;5.29;67.73
53758;BME280;39674;59.860;30.672;2023-05-02T00:14:43;101040.75;;;5.37;67.48
53758;BME280;39674;59.860;30.672;2023-05-02T00:17:46;101007.13;;;5.21;67.42
53758;BME280;39674;59.860;30.672;2023-05-02T00:20:38;101087.22;;;5.66;67.90
53758;BME280;39674;59.860;30.672;2023-05-02T00:23:33;101082.94;;;5.62;68.59
53758;BME280;39674;59.860;30.672;2023-05-02T00:26:08;101026.78;;;5.38;69.67
53758;BME280;39674;59.860;30.672;2023-05-02T00:28:55;101060.47;;;5.52;71.47
53758;BME280;39674;59.860;30.672;2023-05-02T00:31:41;101022.53;;;5.32;74.04
53758;BME280;39674;59.860;30.672;2023-05-02T00:34:18;100953.16;;;4.78;76.79
53758;BME280;39674;59.860;30.672;2023-05-02T00:36:50;101084.19;;;5.47;78.65
53758;BME280;39674;59.860;30.672;2023-05-02T00:39:22;101015.28;;;5.07;78.86
53758;BME280;39674;59.860;30.672;2023-05-02T00:42:06;101021.44;;;5.05;81.10
53758;BME280;39674;59.860;30.672;2023-05-02T00:44:43;101040.22;;;5.22;82.67
53758;BME280;39674;59.860;30.672;2023-05-02T00:47:18;101012.75;;;5.03;84.38
53758;BME280;39674;59.860;30.672;2023-05-02T00:50:07;101067.06;;;5.34;85.14
53758;BME280;39674;59.860;30.672;2023-05-02T00:52:41;100925.09;;;4.47;86.47
53758;BME280;39674;59.860;30.672;2023-05-02T00:55:17;101035.53;;;5.01;88.22
53758;BME280;39674;59.860;30.672;2023-05-02T00:57:49;100957.16;;;4.55;89.31
53758;BME280;39674;59.860;30.672;2023-05-02T01:00:30;101005.38;;;4.82;90.68
53758;BME280;39674;59.860;30.672;2023-05-02T01:03:25;100970.91;;;4.65;91.47
53758;BME280;39674;59.860;30.672;2023-05-02T01:06:07;101032.16;;;4.94;93.51
53758;BME280;39674;59.860;30.672;2023-05-02T01:08:54;100965.03;;;4.54;93.91
53758;BME280;39674;59.860;30.672;2023-05-02T01:11:42;100930.59;;;4.34;94.42
53758;BME280;39674;59.860;30.672;2023-05-02T01:14:28;101002.22;;;4.70;95.81
53758;BME280;39674;59.860;30.672;2023-05-02T01:17:01;100917.75;;;4.24;96.52
53758;BME280;39674;59.860;30.672;2023-05-02T01:19:52;100985.66;;;4.68;97.73
53758;BME280;39674;59.860;30.672;2023-05-02T01:22:30;101036.66;;;4.89;98.18
53758;BME280;39674;59.860;30.672;2023-05-02T01:25:32;100975.47;;;4.55;98.15
53758;BME280;39674;59.860;30.672;2023-05-02T01:28:20;100977.22;;;4.56;99.60
53758;BME280;39674;59.860;30.672;2023-05-02T01:30:59;100967.00;;;4.44;99.72
53758;BME280;39674;59.860;30.672;2023-05-02T01:33:46;100999.59;;;4.70;100.00
53758;BME280;39674;59.860;30.672;2023-05-02T01:36:20;100965.16;;;4.49;100.00
53758;BME280;39674;59.860;30.672;2023-05-02T01:38:50;101033.66;;;5.06;98.78
53758;BME280;39674;59.860;30.672;2023-05-02T01:41:36;100904.91;;;4.13;100.00
53758;BME280;39674;59.860;30.672;2023-05-02T01:44:08;100991.94;;;4.60;100.00
53758;BME280;39674;59.860;30.672;2023-05-02T01:46:43;101040.09;;;4.91;100.00
53758;BME280;39674;59.860;30.672;2023-05-02T01:49:14;101027.25;;;4.80;100.00
53758;BME280;39674;59.860;30.672;2023-05-02T01:51:47;100943.84;;;4.25;100.00
53758;BME280;39674;59.860;30.672;2023-05-02T01:54:34;100976.31;;;4.56;100.00
53758;BME280;39674;59.860;30.672;2023-05-02T01:57:09;100961.00;;;4.39;100.00
53758;BME280;39674;59.860;30.672;2023-05-02T01:59:41;101035.88;;;4.85;100.00
53758;BME280;39674;59.860;30.672;2023-05-02T02:02:20;100980.63;;;4.58;100.00
53758;BME280;39674;59.860;30.672;2023-05-02T02:04:56;101011.75;;;4.71;100.00
53758;BME280;39674;59.860;30.672;2023-05-02T02:07:28;100995.53;;;4.56;100.00
53758;BME280;39674;59.860;30.672;2023-05-02T02:10:02;100903.44;;;3.99;100.00
53758;BME280;39674;59.860;30.672;2023-05-02T02:12:39;100974.06;;;4.39;100.00
53758;BME280;39674;59.860;30.672;2023-05-02T02:15:32;101050.81;;;4.80;100.00
53758;BME280;39674;59.860;30.672;2023-05-02T02:18:11;100979.16;;;4.46;100.00
53758;BME280;39674;59.860;30.672;2023-05-02T02:21:05;100917.22;;;4.08;100.00
53758;BME280;39674;59.860;30.672;2023-05-02T02:23:40;100877.72;;;3.81;100.00
53758;BME280;39674;59.860;30.672;2023-05-02T02:26:17;100902.56;;;4.00;100.00
53758;BME280;39674;59.860;30.672;2023-05-02T02:28:52;100993.94;;;4.47;100.00
53758;BME280;39674;59.860;30.672;2023-05-02T02:31:30;100899.16;;;3.97;100.00
53758;BME280;39674;59.860;30.672;2023-05-02T02:34:07;100992.97;;;4.53;100.00
53758;BME280;39674;59.860;30.672;2023-05-02T02:36:46;100994.81;;;4.48;100.00
53758;BME280;39674;59.860;30.672;2023-05-02T02:39:29;100996.59;;;4.46;100.00
53758;BME280;39674;59.860;30.672;2023-05-02T02:42:13;100996.50;;;4.50;100.00
53758;BME280;39674;59.860;30.672;2023-05-02T02:44:59;100981.91;;;4.40;100.00
53758;BME280;39674;59.860;30.672;2023-05-02T02:47:43;100982.75;;;4.41;100.00
53758;BME280;39674;59.860;30.672;2023-05-02T02:50:31;100990.56;;;4.42;100.00
53758;BME280;39674;59.860;30.672;2023-05-02T02:53:08;101011.44;;;4.45;100.00
53758;BME280;39674;59.860;30.672;2023-05-02T02:55:46;101055.47;;;4.65;100.00
53758;BME280;39674;59.860;30.672;2023-05-02T02:58:28;101019.28;;;4.44;100.00
53758;BME280;39674;59.860;30.672;2023-05-02T03:01:02;101076.28;;;4.72;100.00
53758;BME280;39674;59.860;30.672;2023-05-02T03:03:37;101075.47;;;4.70;100.00
53758;BME280;39674;59.860;30.672;2023-05-02T03:06:09;101024.56;;;4.42;100.00
53758;BME280;39674;59.860;30.672;2023-05-02T03:08:56;100987.59;;;4.18;100.00
53758;BME280;39674;59.860;30.672;2023-05-02T03:11:29;100936.00;;;3.84;100.00
53758;BME280;39674;59.860;30.672;2023-05-02T03:14:04;101008.16;;;4.36;100.00
53758;BME280;39674;59.860;30.672;2023-05-02T03:16:53;101003.72;;;4.38;100.00
53758;BME280;39674;59.860;30.672;2023-05-02T03:19:34;100925.31;;;3.95;100.00
53758;BME280;39674;59.860;30.672;2023-05-02T03:22:11;100972.63;;;4.25;100.00
53758;BME280;39674;59.860;30.672;2023-05-02T03:24:53;100900.97;;;3.93;100.00
53758;BME280;39674;59.860;30.672;2023-05-02T03:27:23;101028.38;;;4.68;100.00
53758;BME280;39674;59.860;30.672;2023-05-02T03:30:00;100984.41;;;4.45;100.00
53758;BME280;39674;59.860;30.672;2023-05-02T03:32:34;100979.03;;;4.51;100.00
53758;BME280;39674;59.860;30.672;2023-05-02T03:35:09;100972.22;;;4.44;100.00
53758;BME280;39674;59.860;30.672;2023-05-02T03:37:53;101028.16;;;4.79;100.00
53758;BME280;39674;59.860;30.672;2023-05-02T03:40:36;100972.88;;;4.54;100.00
53758;BME280;39674;59.860;30.672;2023-05-02T03:43:10;100995.25;;;4.67;100.00
53758;BME280;39674;59.860;30.672;2023-05-02T03:45:44;101021.88;;;4.86;100.00
53758;BME280;39674;59.860;30.672;2023-05-02T03:48:23;101027.13;;;4.86;100.00
53758;BME280;39674;59.860;30.672;2023-05-02T03:51:00;100972.91;;;4.52;100.00
53758;BME280;39674;59.860;30.672;2023-05-02T03:53:50;100989.31;;;4.60;100.00
53758;BME280;39674;59.860;30.672;2023-05-02T03:56:43;100998.81;;;4.64;100.00
53758;BME280;39674;59.860;30.672;2023-05-02T03:59:25;100991.03;;;4.61;100.00
53758;BME280;39674;59.860;30.672;2023-05-02T04:01:55;100982.31;;;4.62;100.00
53758;BME280;39674;59.860;30.672;2023-05-02T04:05:05;100894.41;;;4.16;100.00
53758;BME280;39674;59.860;30.672;2023-05-02T04:07:37;100940.81;;;4.45;100.00
53758;BME280;39674;59.860;30.672;2023-05-02T04:10:12;101016.66;;;4.86;100.00
53758;BME280;39674;59.860;30.672;2023-05-02T04:12:53;101016.56;;;4.91;100.00
53758;BME280;39674;59.860;30.672;2023-05-02T04:15:48;100873.38;;;4.21;100.00
53758;BME280;39674;59.860;30.672;2023-05-02T04:18:40;100947.47;;;4.60;100.00
53758;BME280;39674;59.860;30.672;2023-05-02T04:21:18;100954.03;;;4.77;100.00
53758;BME280;39674;59.860;30.672;2023-05-02T04:24:30;100918.72;;;4.59;100.00
53758;BME280;39674;59.860;30.672;2023-05-02T04:27:49;100934.97;;;4.72;100.00
53758;BME280;39674;59.860;30.672;2023-05-02T04:34:28;100885.16;;;4.39;100.00
53758;BME280;39674;59.860;30.672;2023-05-02T04:38:58;100941.59;;;4.88;100.00
53758;BME280;39674;59.860;30.672;2023-05-02T04:44:11;100984.28;;;5.26;100.00
53758;BME280;39674;59.860;30.672;2023-05-02T04:46:48;100939.44;;;5.04;100.00
53758;BME280;39674;59.860;30.672;2023-05-02T04:49:23;100875.84;;;4.64;100.00
53758;BME280;39674;59.860;30.672;2023-05-02T04:52:10;100897.78;;;4.95;100.00
53758;BME280;39674;59.860;30.672;2023-05-02T04:55:59;100980.34;;;5.44;100.00
53758;BME280;39674;59.860;30.672;2023-05-02T04:57:39;100928.41;;;5.27;100.00
53758;BME280;39674;59.860;30.672;2023-05-02T05:00:19;100840.41;;;4.87;100.00
53758;BME280;39674;59.860;30.672;2023-05-02T05:02:54;100971.09;;;5.64;100.00
53758;BME280;39674;59.860;30.672;2023-05-02T05:05:36;100827.09;;;4.95;100.00
53758;BME280;39674;59.860;30.672;2023-05-02T05:08:50;100959.81;;;5.93;100.00
53758;BME280;39674;59.860;30.672;2023-05-02T05:12:01;100840.41;;;5.20;100.00
53758;BME280;39674;59.860;30.672;2023-05-02T05:15:12;100896.59;;;5.73;100.00
53758;BME280;39674;59.860;30.672;2023-05-02T05:18:16;100890.28;;;5.80;100.00
53758;BME280;39674;59.860;30.672;2023-05-02T05:24:59;100804.22;;;5.35;100.00
53758;BME280;39674;59.860;30.672;2023-05-02T05:28:24;100871.78;;;5.85;100.00
53758;BME280;39674;59.860;30.672;2023-05-02T05:31:55;100798.59;;;5.49;100.00
53758;BME280;39674;59.860;30.672;2023-05-02T05:39:29;100786.78;;;5.63;100.00
53758;BME280;39674;59.860;30.672;2023-05-02T05:42:05;100871.06;;;6.11;100.00
53758;BME280;39674;59.860;30.672;2023-05-02T05:44:51;100922.28;;;6.51;100.00
53758;BME280;39674;59.860;30.672;2023-05-02T05:47:55;100770.63;;;5.79;100.00
53758;BME280;39674;59.860;30.672;2023-05-02T05:50:55;100857.16;;;6.36;100.00
53758;BME280;39674;59.860;30.672;2023-05-02T05:54:30;100771.34;;;6.13;100.00
53758;BME280;39674;59.860;30.672;2023-05-02T05:57:28;100789.78;;;6.38;100.00
53758;BME280;39674;59.860;30.672;2023-05-02T06:00:32;100839.72;;;6.88;100.00
53758;BME280;39674;59.860;30.672;2023-05-02T06:03:19;100846.25;;;7.02;100.00
53758;BME280;39674;59.860;30.672;2023-05-02T06:06:00;100824.50;;;6.98;100.00
53758;BME280;39674;59.860;30.672;2023-05-02T06:08:40;100827.13;;;7.23;100.00
53758;BME280;39674;59.860;30.672;2023-05-02T06:12:18;100897.00;;;8.02;100.00
53758;BME280;39674;59.860;30.672;2023-05-02T06:15:26;100842.91;;;7.95;97.95
53758;BME280;39674;59.860;30.672;2023-05-02T06:18:38;100827.38;;;8.11;94.42
53758;BME280;39674;59.860;30.672;2023-05-02T06:21:30;100875.13;;;8.68;95.85
53758;BME280;39674;59.860;30.672;2023-05-02T06:24:21;100826.16;;;8.64;91.21
53758;BME280;39674;59.860;30.672;2023-05-02T06:27:17;100883.09;;;9.09;89.19
53758;BME280;39674;59.860;30.672;2023-05-02T06:29:45;100813.28;;;8.78;88.08
53758;BME280;39674;59.860;30.672;2023-05-02T06:32:19;100820.00;;;8.86;87.78
53758;BME280;39674;59.860;30.672;2023-05-02T06:34:52;100828.28;;;8.97;86.69
53758;BME280;39674;59.860;30.672;2023-05-02T06:37:35;100827.03;;;9.06;84.84
53758;BME280;39674;59.860;30.672;2023-05-02T06:40:36;100831.03;;;9.14;84.93
53758;BME280;39674;59.860;30.672;2023-05-02T06:46:25;100749.13;;;9.00;82.40
53758;BME280;39674;59.860;30.672;2023-05-02T06:49:13;100814.03;;;9.61;81.25
53758;BME280;39674;59.860;30.672;2023-05-02T06:52:07;100777.13;;;9.61;81.66
53758;BME280;39674;59.860;30.672;2023-05-02T06:54:52;100775.97;;;9.67;81.35
53758;BME280;39674;59.860;30.672;2023-05-02T06:57:53;100740.50;;;9.55;80.40
53758;BME280;39674;59.860;30.672;2023-05-02T07:01:29;100763.16;;;9.78;79.26
53758;BME280;39674;59.860;30.672;2023-05-02T07:04:08;100812.56;;;10.11;77.76
53758;BME280;39674;59.860;30.672;2023-05-02T07:07:15;100762.16;;;10.18;77.66
53758;BME280;39674;59.860;30.672;2023-05-02T07:10:07;100718.78;;;10.41;74.07
53758;BME280;39674;59.860;30.672;2023-05-02T07:12:54;100832.31;;;11.29;75.60
53758;BME280;39674;59.860;30.672;2023-05-02T07:15:48;100767.38;;;11.23;73.81
53758;BME280;39674;59.860;30.672;2023-05-02T07:18:31;100759.75;;;11.34;73.80
53758;BME280;39674;59.860;30.672;2023-05-02T07:22:46;100780.34;;;11.61;70.63
53758;BME280;39674;59.860;30.672;2023-05-02T07:24:06;100814.00;;;11.91;69.41
53758;BME280;39674;59.860;30.672;2023-05-02T07:26:38;100708.88;;;11.29;70.23
53758;BME280;39674;59.860;30.672;2023-05-02T07:29:21;100812.16;;;12.09;70.08
53758;BME280;39674;59.860;30.672;2023-05-02T07:31:53;100714.91;;;11.81;69.24
53758;BME280;39674;59.860;30.672;2023-05-02T07:34:30;100731.19;;;12.05;68.48
53758;BME280;39674;59.860;30.672;2023-05-02T07:37:09;100725.84;;;12.21;65.59
53758;BME280;39674;59.860;30.672;2023-05-02T07:39:58;100761.50;;;12.46;65.25
53758;BME280;39674;59.860;30.672;2023-05-02T07:42:37;100727.16;;;12.44;64.46
53758;BME280;39674;59.860;30.672;2023-05-02T07:45:26;100714.97;;;12.56;63.63
53758;BME280;39674;59.860;30.672;2023-05-02T07:48:09;100736.94;;;12.73;64.44
53758;BME280;39674;59.860;30.672;2023-05-02T07:51:19;100702.34;;;13.05;61.93
53758;BME280;39674;59.860;30.672;2023-05-02T07:54:20;100738.25;;;13.39;60.63
53758;BME280;39674;59.860;30.672;2023-05-02T07:57:11;100692.13;;;13.55;60.39
53758;BME280;39674;59.860;30.672;2023-05-02T07:59:48;100715.84;;;13.85;58.01
53758;BME280;39674;59.860;30.672;2023-05-02T08:02:35;100665.16;;;13.75;58.50
53758;BME280;39674;59.860;30.672;2023-05-02T08:08:20;100725.44;;;14.68;54.69
53758;BME280;39674;59.860;30.672;2023-05-02T08:11:32;100629.66;;;14.04;55.11
53758;BME280;39674;59.860;30.672;2023-05-02T08:15:25;100707.75;;;14.54;53.33
53758;BME280;39674;59.860;30.672;2023-05-02T08:17:21;100697.13;;;14.54;53.65
53758;BME280;39674;59.860;30.672;2023-05-02T08:20:10;100708.84;;;14.90;51.79
53758;BME280;39674;59.860;30.672;2023-05-02T08:22:47;100702.13;;;14.98;52.82
53758;BME280;39674;59.860;30.672;2023-05-02T08:25:38;100682.00;;;15.19;52.20
53758;BME280;39674;59.860;30.672;2023-05-02T08:28:15;100699.81;;;15.43;50.51
53758;BME280;39674;59.860;30.672;2023-05-02T08:30:52;100672.50;;;15.28;49.32
53758;BME280;39674;59.860;30.672;2023-05-02T08:33:25;100740.06;;;15.88;48.73
53758;BME280;39674;59.860;30.672;2023-05-02T08:36:04;100630.91;;;15.14;48.16
53758;BME280;39674;59.860;30.672;2023-05-02T08:39:39;100726.59;;;16.14;47.38
53758;BME280;39674;59.860;30.672;2023-05-02T08:42:16;100662.44;;;16.17;46.37
53758;BME280;39674;59.860;30.672;2023-05-02T08:45:07;100679.53;;;16.26;43.33
53758;BME280;39674;59.860;30.672;2023-05-02T08:48:02;100675.50;;;16.20;42.79
53758;BME280;39674;59.860;30.672;2023-05-02T08:50:56;100676.00;;;16.26;43.11
53758;BME280;39674;59.860;30.672;2023-05-02T08:53:46;100680.94;;;16.55;41.86
53758;BME280;39674;59.860;30.672;2023-05-02T08:56:37;100692.00;;;16.26;42.42
53758;BME280;39674;59.860;30.672;2023-05-02T08:59:43;100658.78;;;16.18;42.00
53758;BME280;39674;59.860;30.672;2023-05-02T09:02:55;100708.34;;;16.68;41.35
53758;BME280;39674;59.860;30.672;2023-05-02T09:05:42;100639.66;;;16.13;41.97
53758;BME280;39674;59.860;30.672;2023-05-02T09:08:35;100702.47;;;16.51;42.01
53758;BME280;39674;59.860;30.672;2023-05-02T09:12:17;100650.31;;;16.13;40.23
53758;BME280;39674;59.860;30.672;2023-05-02T09:15:25;100664.72;;;16.11;42.89
53758;BME280;39674;59.860;30.672;2023-05-02T09:19:22;100603.28;;;16.01;40.74
53758;BME280;39674;59.860;30.672;2023-05-02T09:23:16;100695.75;;;16.70;40.98
53758;BME280;39674;59.860;30.672;2023-05-02T09:38:40;100576.75;;;15.88;38.82
53758;BME280;39674;59.860;30.672;2023-05-02T09:50:05;100638.50;;;16.40;38.12
53758;BME280;39674;59.860;30.672;2023-05-02T09:54:22;100637.47;;;16.18;38.71
53758;BME280;39674;59.860;30.672;2023-05-02T09:59:01;100675.38;;;16.80;36.47
53758;BME280;39674;59.860;30.672;2023-05-02T10:01:39;100603.50;;;16.79;37.04
53758;BME280;39674;59.860;30.672;2023-05-02T10:05:28;100625.16;;;17.31;36.01
53758;BME280;39674;59.860;30.672;2023-05-02T10:08:41;100627.09;;;17.40;33.84
53758;BME280;39674;59.860;30.672;2023-05-02T10:12:05;100577.69;;;17.02;33.55
53758;BME280;39674;59.860;30.672;2023-05-02T10:15:42;100541.09;;;16.47;34.45
53758;BME280;39674;59.860;30.672;2023-05-02T10:18:51;100658.44;;;17.04;35.65
53758;BME280;39674;59.860;30.672;2023-05-02T10:21:35;100603.97;;;16.61;35.69
53758;BME280;39674;59.860;30.672;2023-05-02T10:25:01;100555.19;;;15.91;35.16
53758;BME280;39674;59.860;30.672;2023-05-02T10:40:45;100599.34;;;15.82;35.61
53758;BME280;39674;59.860;30.672;2023-05-02T10:45:00;100642.09;;;16.16;35.75
53758;BME280;39674;59.860;30.672;2023-05-02T11:09:55;100513.72;;;16.57;34.44
53758;BME280;39674;59.860;30.672;2023-05-02T11:14:48;100549.03;;;17.04;33.10
53758;BME280;39674;59.860;30.672;2023-05-02T11:18:02;100601.34;;;17.39;31.61
53758;BME280;39674;59.860;30.672;2023-05-02T11:33:28;100487.94;;;16.90;31.93
53758;BME280;39674;59.860;30.672;2023-05-02T12:36:46;100380.84;;;17.06;28.25
53758;BME280;39674;59.860;30.672;2023-05-02T12:40:26;100479.28;;;17.41;28.47
53758;BME280;39674;59.860;30.672;2023-05-02T12:43:35;100455.34;;;17.19;28.02
53758;BME280;39674;59.860;30.672;2023-05-02T12:46:20;100425.56;;;17.13;28.64
53758;BME280;39674;59.860;30.672;2023-05-02T12:57:24;100420.88;;;17.06;27.60
53758;BME280;39674;59.860;30.672;2023-05-02T13:00:23;100454.16;;;17.11;28.00
53758;BME280;39674;59.860;30.672;2023-05-02T13:03:56;100370.91;;;16.64;28.22
53758;BME280;39674;59.860;30.672;2023-05-02T13:11:47;100447.94;;;17.43;26.91
53758;BME280;39674;59.860;30.672;2023-05-02T13:14:47;100416.50;;;17.26;26.58
53758;BME280;39674;59.860;30.672;2023-05-02T13:23:02;100365.16;;;17.12;26.50
53758;BME280;39674;59.860;30.672;2023-05-02T13:57:33;100323.94;;;17.05;27.17
53758;BME280;39674;59.860;30.672;2023-05-02T15:40:30;100284.53;;;16.34;32.07
53758;BME280;39674;59.860;30.672;2023-05-02T15:47:40;100156.88;;;15.54;32.74
53758;BME280;39674;59.860;30.672;2023-05-02T15:51:19;100207.16;;;15.80;33.04
53758;BME280;39674;59.860;30.672;2023-05-02T15:54:45;100206.19;;;15.81;33.15
53758;BME280;39674;59.860;30.672;2023-05-02T15:58:11;100209.63;;;15.72;33.29
53758;BME280;39674;59.860;30.672;2023-05-02T16:01:38;100184.25;;;15.56;33.12
53758;BME280;39674;59.860;30.672;2023-05-02T16:16:19;100224.63;;;15.84;33.39
53758;BME280;39674;59.860;30.672;2023-05-02T16:20:15;100162.25;;;15.43;33.65
53758;BME280;39674;59.860;30.672;2023-05-02T16:23:19;100229.22;;;15.71;34.59
53758;BME280;39674;59.860;30.672;2023-05-02T16:26:49;100284.41;;;15.92;34.75
53758;BME280;39674;59.860;30.672;2023-05-02T16:30:14;100234.06;;;15.54;34.93
53758;BME280;39674;59.860;30.672;2023-05-02T16:46:37;100210.06;;;14.52;40.40
53758;BME280;39674;59.860;30.672;2023-05-02T16:50:07;100281.94;;;14.86;41.21
53758;BME280;39674;59.860;30.672;2023-05-02T17:20:21;100298.94;;;13.87;47.64
53758;BME280;39674;59.860;30.672;2023-05-02T17:23:16;100343.84;;;14.03;48.64
53758;BME280;39674;59.860;30.672;2023-05-02T17:26:11;100318.97;;;13.67;50.39
53758;BME280;39674;59.860;30.672;2023-05-02T17:29:23;100355.03;;;13.82;53.39
53758;BME280;39674;59.860;30.672;2023-05-02T17:32:25;100358.03;;;13.52;57.36
53758;BME280;39674;59.860;30.672;2023-05-02T17:34:56;100350.06;;;13.39;58.35
53758;BME280;39674;59.860;30.672;2023-05-02T17:37:37;100266.09;;;12.60;59.98
53758;BME280;39674;59.860;30.672;2023-05-02T17:40:46;100305.34;;;12.81;62.95
53758;BME280;39674;59.860;30.672;2023-05-02T17:43:32;100303.72;;;12.25;66.32
